Narathiwat, Thailand

11:21 AM ICT on September 23, 2014 (GMT +0700)
Narathiwat | Change Station
CLOSE
Current Station
Airport
Location: Narathiwat,
Elevation: 16 ft
Nearby Weather Stations

Elev 16 ft 6.43 °N, 101.82 °E | Updated 21 minutes ago

Mostly Cloudy
Mostly Cloudy
82 °F
Feels Like 91 °F
N
2
Wind Variable Wind from Variable

Today
High -- | Low -- °F
--% Chance of Precip.
Yesterday
High -- | Low -- °F
Precip. -- in
6:02 AM 6:08 PM
Waning Crescent, 1% visible
Pressure 29.89 in
Visibility 5.0 miles
Clouds Few 1800 ft
Few 2000 ft
Scattered Clouds 3000 ft
Mostly Cloudy 10000 ft
Heat Index 91 °F
Dew Point 77 °F
Humidity 84%
Rainfall 0.00 in
Snow Depth Not available.
UV 9 out of 12
Pollen Not available.
Air Quality Not available.
Flu Activity Not available.
METAR VTSC 230400Z VRB02KT 8000 FEW018CB FEW020 SCT030 BKN100 28/25 Q1012 A2988 CB NE RWY20 INFO C

More Conditions Fewer Conditions

Pressure 29.89 in
Visibility 5.0 miles
Clouds Few 1800 ft
Few 2000 ft
Scattered Clouds 3000 ft
Mostly Cloudy 10000 ft
Heat Index 91 °F
Dew Point 77 °F
Humidity 84%
Rainfall 0.00 in
Snow Depth Not available.
UV 9 out of 12
Pollen Not available.
Air Quality Not available.
Flu Activity Not available.
METAR VTSC 230400Z VRB02KT 8000 FEW018CB FEW020 SCT030 BKN100 28/25 Q1012 A2988 CB NE RWY20 INFO C

More Conditions Fewer Conditions

10-Day Weather Forecast

Almanac

Astronomy

Sep. 23, 2014 Rise Set
Actual Time 6:02 AM ICT 6:08 PM ICT
Civil Twilight 5:41 AM ICT 6:29 PM ICT
Nautical Twilight 5:17 AM ICT 6:53 PM ICT
Astronomical Twilight 4:53 AM ICT 7:17 PM ICT
Moon 5:05 AM ICT 5:28 PM ICT
Length of Visible Light 12h 48m
Length of Day
12h 06m
Tomorrow will be 0m 22s shorter.
Waning Crescent, 1% of the Moon is Illuminated
Today
Waning Crescent
Sep 24
New
Oct 1
First Quarter
Oct 8
Full
Oct 15
Last Quarter

Yesterday's Extremes

Country Highs Country Lows

Community

WunderPhotos

Upload Photos

1,755,611 photos uploaded!

Nearby

Snow Depth

Not available.

Earthquake Activity

City Distance Mag. Time & Date
No recent earthquake activity has been reported nearby.
Minimum magnitude displayed is 2.5.

Coastal Water Temperatures

Place Temperature
No Stations Reporting

Nearby Weather Stations